sensor_id;sensor_type;location;lat;lon;timestamp;pressure;altitude;pressure_sealevel;temperature;humidity
61109;BME280;46995;55.740;37.402;2024-01-15T00:01:44;97447.00;;;-7.84;89.14
61109;BME280;46995;55.740;37.402;2024-01-15T00:04:09;97443.38;;;-7.80;89.32
61109;BME280;46995;55.740;37.402;2024-01-15T00:06:35;97450.34;;;-7.82;89.43
61109;BME280;46995;55.740;37.402;2024-01-15T00:09:02;97446.88;;;-7.81;89.12
61109;BME280;46995;55.740;37.402;2024-01-15T00:11:28;97443.38;;;-7.80;89.14
61109;BME280;46995;55.740;37.402;2024-01-15T00:13:53;97443.25;;;-7.77;89.78
61109;BME280;46995;55.740;37.402;2024-01-15T00:19:11;97442.22;;;-7.73;89.25
61109;BME280;46995;55.740;37.402;2024-01-15T00:21:36;97432.75;;;-7.71;89.20
61109;BME280;46995;55.740;37.402;2024-01-15T00:24:04;97424.22;;;-7.71;89.13
61109;BME280;46995;55.740;37.402;2024-01-15T00:26:29;97423.38;;;-7.72;89.68
61109;BME280;46995;55.740;37.402;2024-01-15T00:28:55;97426.72;;;-7.69;89.39
61109;BME280;46995;55.740;37.402;2024-01-15T00:31:20;97417.22;;;-7.67;89.46
61109;BME280;46995;55.740;37.402;2024-01-15T00:33:46;97419.72;;;-7.66;89.62
61109;BME280;46995;55.740;37.402;2024-01-15T00:36:12;97421.28;;;-7.63;89.82
61109;BME280;46995;55.740;37.402;2024-01-15T00:38:38;97428.00;;;-7.61;89.45
61109;BME280;46995;55.740;37.402;2024-01-15T00:41:04;97416.91;;;-7.61;89.31
61109;BME280;46995;55.740;37.402;2024-01-15T00:43:30;97414.41;;;-7.63;89.24
61109;BME280;46995;55.740;37.402;2024-01-15T00:45:55;97412.69;;;-7.62;89.87
61109;BME280;46995;55.740;37.402;2024-01-15T00:48:21;97410.97;;;-7.62;89.77
61109;BME280;46995;55.740;37.402;2024-01-15T00:50:46;97403.28;;;-7.62;89.68
61109;BME280;46995;55.740;37.402;2024-01-15T00:53:12;97397.25;;;-7.61;89.71
61109;BME280;46995;55.740;37.402;2024-01-15T00:55:38;97408.28;;;-7.59;90.12
61109;BME280;46995;55.740;37.402;2024-01-15T00:58:03;97405.56;;;-7.56;89.36
61109;BME280;46995;55.740;37.402;2024-01-15T01:00:29;97404.56;;;-7.53;89.54
61109;BME280;46995;55.740;37.402;2024-01-15T01:02:55;97403.53;;;-7.49;89.90
61109;BME280;46995;55.740;37.402;2024-01-15T01:05:20;97382.09;;;-7.48;90.00
61109;BME280;46995;55.740;37.402;2024-01-15T01:07:46;97388.00;;;-7.46;89.78
61109;BME280;46995;55.740;37.402;2024-01-15T01:10:11;97385.38;;;-7.45;89.68
61109;BME280;46995;55.740;37.402;2024-01-15T01:12:37;97385.31;;;-7.43;89.96
61109;BME280;46995;55.740;37.402;2024-01-15T01:15:03;97380.16;;;-7.43;89.51
61109;BME280;46995;55.740;37.402;2024-01-15T01:17:29;97381.81;;;-7.42;89.99
61109;BME280;46995;55.740;37.402;2024-01-15T01:19:55;97369.91;;;-7.43;90.15
61109;BME280;46995;55.740;37.402;2024-01-15T01:22:21;97371.41;;;-7.39;89.89
61109;BME280;46995;55.740;37.402;2024-01-15T01:24:51;97363.63;;;-7.38;90.26
61109;BME280;46995;55.740;37.402;2024-01-15T01:27:16;97365.41;;;-7.38;89.47
61109;BME280;46995;55.740;37.402;2024-01-15T01:29:42;97361.84;;;-7.36;89.85
61109;BME280;46995;55.740;37.402;2024-01-15T01:32:07;97363.44;;;-7.33;89.97
61109;BME280;46995;55.740;37.402;2024-01-15T01:34:35;97363.34;;;-7.32;89.71
61109;BME280;46995;55.740;37.402;2024-01-15T01:37:06;97359.75;;;-7.28;89.63
61109;BME280;46995;55.740;37.402;2024-01-15T01:39:32;97365.53;;;-7.24;89.81
61109;BME280;46995;55.740;37.402;2024-01-15T01:41:58;97349.97;;;-7.21;89.83
61109;BME280;46995;55.740;37.402;2024-01-15T01:44:23;97362.72;;;-7.19;89.77
61109;BME280;46995;55.740;37.402;2024-01-15T01:46:49;97355.13;;;-7.21;89.60
61109;BME280;46995;55.740;37.402;2024-01-15T01:49:15;97345.69;;;-7.20;89.98
61109;BME280;46995;55.740;37.402;2024-01-15T01:51:40;97334.59;;;-7.21;90.14
61109;BME280;46995;55.740;37.402;2024-01-15T01:54:06;97343.97;;;-7.20;89.86
61109;BME280;46995;55.740;37.402;2024-01-15T01:56:34;97343.97;;;-7.20;90.05
61109;BME280;46995;55.740;37.402;2024-01-15T01:59:01;97333.53;;;-7.17;90.00
61109;BME280;46995;55.740;37.402;2024-01-15T02:01:28;97333.41;;;-7.14;90.12
61109;BME280;46995;55.740;37.402;2024-01-15T02:03:54;97328.84;;;-7.09;89.94
61109;BME280;46995;55.740;37.402;2024-01-15T02:06:23;97326.94;;;-7.05;90.16
61109;BME280;46995;55.740;37.402;2024-01-15T02:08:48;97326.88;;;-7.04;90.40
61109;BME280;46995;55.740;37.402;2024-01-15T02:11:15;97321.44;;;-6.98;90.18
61109;BME280;46995;55.740;37.402;2024-01-15T02:13:40;97328.06;;;-6.94;90.42
61109;BME280;46995;55.740;37.402;2024-01-15T02:16:06;97330.38;;;-6.89;90.33
61109;BME280;46995;55.740;37.402;2024-01-15T02:18:41;97324.13;;;-6.83;89.95
61109;BME280;46995;55.740;37.402;2024-01-15T02:21:27;97323.97;;;-6.80;90.43
61109;BME280;46995;55.740;37.402;2024-01-15T02:23:55;97315.44;;;-6.81;90.13
61109;BME280;46995;55.740;37.402;2024-01-15T02:26:21;97320.47;;;-6.79;90.44
61109;BME280;46995;55.740;37.402;2024-01-15T02:28:47;97323.81;;;-6.77;90.14
61109;BME280;46995;55.740;37.402;2024-01-15T02:31:13;97319.50;;;-6.77;90.39
61109;BME280;46995;55.740;37.402;2024-01-15T02:33:38;97323.63;;;-6.74;90.14
61109;BME280;46995;55.740;37.402;2024-01-15T02:36:04;97321.81;;;-6.72;90.19
61109;BME280;46995;55.740;37.402;2024-01-15T02:38:29;97328.44;;;-6.68;90.48
61109;BME280;46995;55.740;37.402;2024-01-15T02:40:55;97324.00;;;-6.65;90.54
61109;BME280;46995;55.740;37.402;2024-01-15T02:43:21;97323.00;;;-6.62;90.26
61109;BME280;46995;55.740;37.402;2024-01-15T02:45:46;97326.13;;;-6.57;90.62
61109;BME280;46995;55.740;37.402;2024-01-15T02:48:12;97323.44;;;-6.54;90.95
61109;BME280;46995;55.740;37.402;2024-01-15T02:50:38;97322.50;;;-6.53;90.40
61109;BME280;46995;55.740;37.402;2024-01-15T02:53:03;97315.56;;;-6.51;90.73
61109;BME280;46995;55.740;37.402;2024-01-15T02:55:29;97319.78;;;-6.50;90.73
61109;BME280;46995;55.740;37.402;2024-01-15T02:57:54;97318.78;;;-6.48;91.25
61109;BME280;46995;55.740;37.402;2024-01-15T03:00:21;97318.69;;;-6.46;90.41
61109;BME280;46995;55.740;37.402;2024-01-15T03:02:47;97316.06;;;-6.45;91.01
61109;BME280;46995;55.740;37.402;2024-01-15T03:05:15;97309.09;;;-6.43;90.39
61109;BME280;46995;55.740;37.402;2024-01-15T03:07:41;97314.72;;;-6.36;90.96
61109;BME280;46995;55.740;37.402;2024-01-15T03:10:07;97309.41;;;-6.33;90.48
61109;BME280;46995;55.740;37.402;2024-01-15T03:12:32;97304.13;;;-6.30;91.52
61109;BME280;46995;55.740;37.402;2024-01-15T03:14:58;97307.41;;;-6.28;91.88
61109;BME280;46995;55.740;37.402;2024-01-15T03:17:23;97301.31;;;-6.25;92.25
61109;BME280;46995;55.740;37.402;2024-01-15T03:19:49;97301.94;;;-6.22;92.43
61109;BME280;46995;55.740;37.402;2024-01-15T03:22:15;97307.78;;;-6.18;92.47
61109;BME280;46995;55.740;37.402;2024-01-15T03:24:41;97301.63;;;-6.16;92.29
61109;BME280;46995;55.740;37.402;2024-01-15T03:27:06;97294.75;;;-6.15;92.43
61109;BME280;46995;55.740;37.402;2024-01-15T03:29:32;97290.94;;;-6.08;93.18
61109;BME280;46995;55.740;37.402;2024-01-15T03:31:58;97289.00;;;-6.05;92.44
61109;BME280;46995;55.740;37.402;2024-01-15T03:34:23;97293.97;;;-6.02;92.36
61109;BME280;46995;55.740;37.402;2024-01-15T03:36:49;97284.38;;;-5.98;93.49
61109;BME280;46995;55.740;37.402;2024-01-15T03:39:14;97287.59;;;-5.94;93.19
61109;BME280;46995;55.740;37.402;2024-01-15T03:41:40;97286.69;;;-5.93;92.58
61109;BME280;46995;55.740;37.402;2024-01-15T03:44:05;97284.94;;;-5.93;93.33
61109;BME280;46995;55.740;37.402;2024-01-15T03:46:31;97277.03;;;-5.90;93.08
61109;BME280;46995;55.740;37.402;2024-01-15T03:48:57;97271.84;;;-5.88;93.32
61109;BME280;46995;55.740;37.402;2024-01-15T03:51:23;97272.56;;;-5.86;92.93
61109;BME280;46995;55.740;37.402;2024-01-15T03:53:48;97277.69;;;-5.86;93.49
61109;BME280;46995;55.740;37.402;2024-01-15T03:56:14;97271.53;;;-5.84;93.45
61109;BME280;46995;55.740;37.402;2024-01-15T03:58:40;97279.06;;;-5.81;92.79
61109;BME280;46995;55.740;37.402;2024-01-15T04:01:11;97272.84;;;-5.77;93.28
61109;BME280;46995;55.740;37.402;2024-01-15T04:03:38;97277.16;;;-5.77;93.75
61109;BME280;46995;55.740;37.402;2024-01-15T04:06:04;97268.69;;;-5.79;93.17
61109;BME280;46995;55.740;37.402;2024-01-15T04:08:30;97276.41;;;-5.79;93.04
61109;BME280;46995;55.740;37.402;2024-01-15T04:10:55;97272.19;;;-5.80;93.08
61109;BME280;46995;55.740;37.402;2024-01-15T04:13:22;97270.44;;;-5.80;93.21
61109;BME280;46995;55.740;37.402;2024-01-15T04:15:48;97273.91;;;-5.81;93.48
61109;BME280;46995;55.740;37.402;2024-01-15T04:18:15;97275.69;;;-5.81;93.05
61109;BME280;46995;55.740;37.402;2024-01-15T04:20:41;97271.19;;;-5.78;93.25
61109;BME280;46995;55.740;37.402;2024-01-15T04:23:07;97268.28;;;-5.72;93.03
61109;BME280;46995;55.740;37.402;2024-01-15T04:25:32;97261.19;;;-5.68;92.90
61109;BME280;46995;55.740;37.402;2024-01-15T04:27:58;97267.81;;;-5.64;92.93
61109;BME280;46995;55.740;37.402;2024-01-15T04:30:24;97262.50;;;-5.61;93.33
61109;BME280;46995;55.740;37.402;2024-01-15T04:32:49;97269.13;;;-5.57;93.26
61109;BME280;46995;55.740;37.402;2024-01-15T04:35:15;97266.63;;;-5.59;93.22
61109;BME280;46995;55.740;37.402;2024-01-15T04:37:40;97261.41;;;-5.57;93.05
61109;BME280;46995;55.740;37.402;2024-01-15T04:40:06;97263.06;;;-5.56;93.11
61109;BME280;46995;55.740;37.402;2024-01-15T04:42:32;97253.50;;;-5.54;93.13
61109;BME280;46995;55.740;37.402;2024-01-15T04:44:58;97256.84;;;-5.52;93.25
61109;BME280;46995;55.740;37.402;2024-01-15T04:47:24;97253.16;;;-5.48;93.40
61109;BME280;46995;55.740;37.402;2024-01-15T04:49:50;97249.69;;;-5.47;93.32
61109;BME280;46995;55.740;37.402;2024-01-15T04:52:16;97251.25;;;-5.44;92.85
61109;BME280;46995;55.740;37.402;2024-01-15T04:54:42;97254.47;;;-5.41;92.98
61109;BME280;46995;55.740;37.402;2024-01-15T04:57:07;97257.75;;;-5.39;93.42
61109;BME280;46995;55.740;37.402;2024-01-15T04:59:33;97252.53;;;-5.37;93.20
61109;BME280;46995;55.740;37.402;2024-01-15T05:02:18;97247.31;;;-5.36;92.72
61109;BME280;46995;55.740;37.402;2024-01-15T05:04:44;97178.75;;;-5.79;93.02
61109;BME280;46995;55.740;37.402;2024-01-15T05:07:10;97259.06;;;-5.32;92.97
61109;BME280;46995;55.740;37.402;2024-01-15T05:09:35;97253.91;;;-5.32;93.09
61109;BME280;46995;55.740;37.402;2024-01-15T05:12:01;97255.56;;;-5.31;92.60
61109;BME280;46995;55.740;37.402;2024-01-15T05:14:27;97250.22;;;-5.28;93.48
61109;BME280;46995;55.740;37.402;2024-01-15T05:16:53;97251.91;;;-5.27;92.75
61109;BME280;46995;55.740;37.402;2024-01-15T05:19:18;97258.69;;;-5.26;93.16
61109;BME280;46995;55.740;37.402;2024-01-15T05:21:44;97256.88;;;-5.24;93.41
61109;BME280;46995;55.740;37.402;2024-01-15T05:24:10;97251.53;;;-5.21;92.99
61109;BME280;46995;55.740;37.402;2024-01-15T05:26:36;97250.69;;;-5.21;93.37
61109;BME280;46995;55.740;37.402;2024-01-15T05:29:02;97253.34;;;-5.23;92.35
61109;BME280;46995;55.740;37.402;2024-01-15T05:31:31;97259.25;;;-5.21;92.89
61109;BME280;46995;55.740;37.402;2024-01-15T05:33:56;97248.69;;;-5.16;93.00
61109;BME280;46995;55.740;37.402;2024-01-15T05:36:22;97255.41;;;-5.14;93.14
61109;BME280;46995;55.740;37.402;2024-01-15T05:38:48;97256.13;;;-5.12;93.25
61109;BME280;46995;55.740;37.402;2024-01-15T05:41:15;97253.38;;;-5.08;93.54
61109;BME280;46995;55.740;37.402;2024-01-15T05:46:25;97253.03;;;-5.02;93.21
61109;BME280;46995;55.740;37.402;2024-01-15T05:48:51;97254.56;;;-5.00;92.64
61109;BME280;46995;55.740;37.402;2024-01-15T05:51:16;97254.38;;;-4.97;93.10
61109;BME280;46995;55.740;37.402;2024-01-15T05:53:42;97259.44;;;-4.95;92.74
61109;BME280;46995;55.740;37.402;2024-01-15T05:56:09;97251.53;;;-4.92;93.45
61109;BME280;46995;55.740;37.402;2024-01-15T05:58:35;97259.97;;;-4.90;93.24
61109;BME280;46995;55.740;37.402;2024-01-15T06:01:01;97264.28;;;-4.91;93.11
61109;BME280;46995;55.740;37.402;2024-01-15T06:03:27;97258.97;;;-4.88;93.13
61109;BME280;46995;55.740;37.402;2024-01-15T06:05:52;97264.75;;;-4.84;93.08
61109;BME280;46995;55.740;37.402;2024-01-15T06:08:18;97263.75;;;-4.82;92.74
61109;BME280;46995;55.740;37.402;2024-01-15T06:10:44;97257.38;;;-4.76;92.53
61109;BME280;46995;55.740;37.402;2024-01-15T06:13:10;97261.44;;;-4.72;92.76
61109;BME280;46995;55.740;37.402;2024-01-15T06:15:35;97258.50;;;-4.66;92.53
61109;BME280;46995;55.740;37.402;2024-01-15T06:18:01;97257.38;;;-4.62;92.75
61109;BME280;46995;55.740;37.402;2024-01-15T06:20:30;97251.13;;;-4.58;92.92
61109;BME280;46995;55.740;37.402;2024-01-15T06:22:55;97254.44;;;-4.56;92.39
61109;BME280;46995;55.740;37.402;2024-01-15T06:25:21;97254.22;;;-4.53;93.01
61109;BME280;46995;55.740;37.402;2024-01-15T06:27:47;97254.97;;;-4.51;93.89
61109;BME280;46995;55.740;37.402;2024-01-15T06:30:13;97256.44;;;-4.47;93.96
61109;BME280;46995;55.740;37.402;2024-01-15T06:32:38;97252.81;;;-4.44;94.53
61109;BME280;46995;55.740;37.402;2024-01-15T06:35:04;97255.22;;;-4.41;94.56
61109;BME280;46995;55.740;37.402;2024-01-15T06:37:30;97258.41;;;-4.38;94.82
61109;BME280;46995;55.740;37.402;2024-01-15T06:39:57;97261.53;;;-4.33;94.87
61109;BME280;46995;55.740;37.402;2024-01-15T06:42:23;97266.50;;;-4.30;94.60
61109;BME280;46995;55.740;37.402;2024-01-15T06:44:49;97263.72;;;-4.27;94.52
61109;BME280;46995;55.740;37.402;2024-01-15T06:47:14;97253.13;;;-4.22;95.00
61109;BME280;46995;55.740;37.402;2024-01-15T06:49:51;97252.13;;;-4.19;95.75
61109;BME280;46995;55.740;37.402;2024-01-15T06:52:28;97250.06;;;-4.14;95.48
61109;BME280;46995;55.740;37.402;2024-01-15T06:54:54;97268.66;;;-4.09;95.11
61109;BME280;46995;55.740;37.402;2024-01-15T06:57:22;97257.31;;;-4.07;95.70
61109;BME280;46995;55.740;37.402;2024-01-15T06:59:48;97250.31;;;-4.05;95.68
61109;BME280;46995;55.740;37.402;2024-01-15T07:02:14;97263.19;;;-4.05;95.11
61109;BME280;46995;55.740;37.402;2024-01-15T07:04:40;97259.78;;;-4.05;95.30
61109;BME280;46995;55.740;37.402;2024-01-15T07:07:05;97266.69;;;-4.06;95.15
61109;BME280;46995;55.740;37.402;2024-01-15T07:09:31;97261.44;;;-4.04;95.00
61109;BME280;46995;55.740;37.402;2024-01-15T07:11:56;97256.19;;;-4.03;95.16
61109;BME280;46995;55.740;37.402;2024-01-15T07:14:23;97254.25;;;-3.99;94.89
61109;BME280;46995;55.740;37.402;2024-01-15T07:16:49;97251.38;;;-3.95;95.14
61109;BME280;46995;55.740;37.402;2024-01-15T07:19:14;97260.56;;;-3.91;95.20
61109;BME280;46995;55.740;37.402;2024-01-15T07:21:40;97257.78;;;-3.88;95.35
61109;BME280;46995;55.740;37.402;2024-01-15T07:24:09;97258.50;;;-3.86;95.05
61109;BME280;46995;55.740;37.402;2024-01-15T07:26:36;97259.34;;;-3.85;95.51
61109;BME280;46995;55.740;37.402;2024-01-15T07:29:05;97271.38;;;-3.86;94.82
61109;BME280;46995;55.740;37.402;2024-01-15T07:31:30;97255.09;;;-3.86;95.29
61109;BME280;46995;55.740;37.402;2024-01-15T07:33:56;97262.66;;;-3.83;94.89
61109;BME280;46995;55.740;37.402;2024-01-15T07:36:22;97260.69;;;-3.79;94.76
61109;BME280;46995;55.740;37.402;2024-01-15T07:38:47;97268.94;;;-3.74;95.41
61109;BME280;46995;55.740;37.402;2024-01-15T07:41:13;97264.41;;;-3.71;95.16
61109;BME280;46995;55.740;37.402;2024-01-15T07:43:39;97250.19;;;-3.64;95.18
61109;BME280;46995;55.740;37.402;2024-01-15T07:46:04;97254.13;;;-3.58;94.74
61109;BME280;46995;55.740;37.402;2024-01-15T07:48:30;97255.56;;;-3.54;94.70
61109;BME280;46995;55.740;37.402;2024-01-15T07:50:56;97252.69;;;-3.50;95.10
61109;BME280;46995;55.740;37.402;2024-01-15T07:53:21;97253.03;;;-3.42;94.69
61109;BME280;46995;55.740;37.402;2024-01-15T07:55:47;97248.47;;;-3.38;94.90
61109;BME280;46995;55.740;37.402;2024-01-15T07:58:13;97243.63;;;-3.30;94.95
61109;BME280;46995;55.740;37.402;2024-01-15T08:00:38;97244.44;;;-3.17;94.56
61109;BME280;46995;55.740;37.402;2024-01-15T08:03:04;97246.81;;;-3.01;94.80
61109;BME280;46995;55.740;37.402;2024-01-15T08:05:30;97241.75;;;-2.90;94.65
61109;BME280;46995;55.740;37.402;2024-01-15T08:07:57;97251.44;;;-2.81;94.53
61109;BME280;46995;55.740;37.402;2024-01-15T08:10:22;97244.59;;;-2.69;95.07
61109;BME280;46995;55.740;37.402;2024-01-15T08:12:48;97239.63;;;-2.60;95.10
61109;BME280;46995;55.740;37.402;2024-01-15T08:15:13;97240.84;;;-2.52;95.19
61109;BME280;46995;55.740;37.402;2024-01-15T08:17:39;97253.09;;;-2.43;95.49
61109;BME280;46995;55.740;37.402;2024-01-15T08:20:06;97254.78;;;-2.42;95.31
61109;BME280;46995;55.740;37.402;2024-01-15T08:22:31;97244.44;;;-2.42;95.37
61109;BME280;46995;55.740;37.402;2024-01-15T08:24:57;97244.44;;;-2.42;95.63
61109;BME280;46995;55.740;37.402;2024-01-15T08:27:23;97253.00;;;-2.42;96.10
61109;BME280;46995;55.740;37.402;2024-01-15T08:29:48;97247.22;;;-2.45;95.89
61109;BME280;46995;55.740;37.402;2024-01-15T08:32:14;97247.44;;;-2.48;96.02
61109;BME280;46995;55.740;37.402;2024-01-15T08:34:41;97254.25;;;-2.47;96.02
61109;BME280;46995;55.740;37.402;2024-01-15T08:37:07;97248.59;;;-2.52;96.61
61109;BME280;46995;55.740;37.402;2024-01-15T08:39:35;97256.13;;;-2.49;96.43
61109;BME280;46995;55.740;37.402;2024-01-15T08:42:04;97251.56;;;-2.46;96.49
61109;BME280;46995;55.740;37.402;2024-01-15T08:44:29;97254.03;;;-2.44;97.00
61109;BME280;46995;55.740;37.402;2024-01-15T08:46:55;97249.59;;;-2.42;96.69
61109;BME280;46995;55.740;37.402;2024-01-15T08:49:21;97254.03;;;-2.44;97.00
61109;BME280;46995;55.740;37.402;2024-01-15T08:51:48;97257.03;;;-2.50;96.82
61109;BME280;46995;55.740;37.402;2024-01-15T08:54:14;97258.94;;;-2.52;97.10
61109;BME280;46995;55.740;37.402;2024-01-15T08:56:40;97261.50;;;-2.52;96.96
61109;BME280;46995;55.740;37.402;2024-01-15T08:59:06;97253.03;;;-2.54;96.91
61109;BME280;46995;55.740;37.402;2024-01-15T09:01:32;97259.84;;;-2.53;96.76
61109;BME280;46995;55.740;37.402;2024-01-15T09:03:57;97255.63;;;-2.54;96.57
61109;BME280;46995;55.740;37.402;2024-01-15T09:06:23;97250.69;;;-2.58;96.58
61109;BME280;46995;55.740;37.402;2024-01-15T09:08:49;97251.59;;;-2.59;96.97
61109;BME280;46995;55.740;37.402;2024-01-15T09:11:15;97253.97;;;-2.56;96.75
61109;BME280;46995;55.740;37.402;2024-01-15T09:13:41;97248.47;;;-2.51;96.54
61109;BME280;46995;55.740;37.402;2024-01-15T09:16:07;97248.59;;;-2.52;96.50
61109;BME280;46995;55.740;37.402;2024-01-15T09:18:32;97247.88;;;-2.54;96.61
61109;BME280;46995;55.740;37.402;2024-01-15T09:20:58;97253.03;;;-2.54;96.90
61109;BME280;46995;55.740;37.402;2024-01-15T09:23:24;97246.84;;;-2.52;97.09
61109;BME280;46995;55.740;37.402;2024-01-15T09:25:50;97248.16;;;-2.46;96.86
61109;BME280;46995;55.740;37.402;2024-01-15T09:28:18;97239.97;;;-2.40;96.79
61109;BME280;46995;55.740;37.402;2024-01-15T09:30:43;97246.59;;;-2.36;96.55
61109;BME280;46995;55.740;37.402;2024-01-15T09:33:10;97240.47;;;-2.35;96.68
61109;BME280;46995;55.740;37.402;2024-01-15T09:35:36;97246.59;;;-2.36;96.53
61109;BME280;46995;55.740;37.402;2024-01-15T09:38:02;97241.41;;;-2.36;96.51
61109;BME280;46995;55.740;37.402;2024-01-15T09:40:29;97246.78;;;-2.39;96.70
61109;BME280;46995;55.740;37.402;2024-01-15T09:42:56;97255.47;;;-2.40;96.81
61109;BME280;46995;55.740;37.402;2024-01-15T09:45:22;97244.34;;;-2.41;96.67
61109;BME280;46995;55.740;37.402;2024-01-15T09:47:47;97252.88;;;-2.40;96.26
61109;BME280;46995;55.740;37.402;2024-01-15T09:50:13;97260.44;;;-2.37;96.11
61109;BME280;46995;55.740;37.402;2024-01-15T09:52:43;97263.53;;;-2.32;96.55
61109;BME280;46995;55.740;37.402;2024-01-15T09:55:09;97255.34;;;-2.26;96.32
61109;BME280;46995;55.740;37.402;2024-01-15T09:57:34;97246.19;;;-2.19;96.24
61109;BME280;46995;55.740;37.402;2024-01-15T10:00:01;97250.81;;;-2.11;96.04
61109;BME280;46995;55.740;37.402;2024-01-15T10:02:29;97249.66;;;-2.07;96.34
61109;BME280;46995;55.740;37.402;2024-01-15T10:05:01;97253.91;;;-2.06;96.09
61109;BME280;46995;55.740;37.402;2024-01-15T10:07:29;97260.59;;;-2.04;96.14
61109;BME280;46995;55.740;37.402;2024-01-15T10:09:54;97253.66;;;-2.03;95.99
61109;BME280;46995;55.740;37.402;2024-01-15T10:12:21;97259.91;;;-2.06;95.88
61109;BME280;46995;55.740;37.402;2024-01-15T10:14:48;97267.75;;;-2.07;95.71
61109;BME280;46995;55.740;37.402;2024-01-15T10:17:14;97250.59;;;-2.08;96.04
61109;BME280;46995;55.740;37.402;2024-01-15T10:19:40;97246.03;;;-2.05;95.61
61109;BME280;46995;55.740;37.402;2024-01-15T10:22:07;97249.31;;;-2.03;95.73
61109;BME280;46995;55.740;37.402;2024-01-15T10:24:34;97254.31;;;-2.00;95.59
61109;BME280;46995;55.740;37.402;2024-01-15T10:27:10;97251.72;;;-2.00;95.70
61109;BME280;46995;55.740;37.402;2024-01-15T10:29:37;97259.47;;;-2.00;95.75
61109;BME280;46995;55.740;37.402;2024-01-15T10:32:03;97251.72;;;-2.00;95.78
61109;BME280;46995;55.740;37.402;2024-01-15T10:34:31;97254.31;;;-2.00;95.48
61109;BME280;46995;55.740;37.402;2024-01-15T10:36:57;97249.13;;;-2.00;95.70
61109;BME280;46995;55.740;37.402;2024-01-15T10:39:23;97253.22;;;-1.97;95.36
61109;BME280;46995;55.740;37.402;2024-01-15T10:41:51;97257.38;;;-1.95;95.35
61109;BME280;46995;55.740;37.402;2024-01-15T10:44:17;97256.44;;;-1.94;95.59
61109;BME280;46995;55.740;37.402;2024-01-15T10:46:43;97250.31;;;-1.93;95.23
61109;BME280;46995;55.740;37.402;2024-01-15T10:49:09;97252.69;;;-1.90;95.51
61109;BME280;46995;55.740;37.402;2024-01-15T10:51:36;97251.75;;;-1.89;95.20
61109;BME280;46995;55.740;37.402;2024-01-15T10:54:02;97240.59;;;-1.89;95.18
61109;BME280;46995;55.740;37.402;2024-01-15T10:56:28;97251.88;;;-1.90;95.37
61109;BME280;46995;55.740;37.402;2024-01-15T10:58:55;97250.13;;;-1.90;95.32
61109;BME280;46995;55.740;37.402;2024-01-15T11:01:21;97244.00;;;-1.89;95.33
61109;BME280;46995;55.740;37.402;2024-01-15T11:03:48;97243.19;;;-1.89;95.11
61109;BME280;46995;55.740;37.402;2024-01-15T11:06:17;97253.63;;;-1.91;95.27
61109;BME280;46995;55.740;37.402;2024-01-15T11:08:48;97238.94;;;-1.90;95.25
61109;BME280;46995;55.740;37.402;2024-01-15T11:11:16;97241.19;;;-1.86;95.05
61109;BME280;46995;55.740;37.402;2024-01-15T11:13:41;97241.66;;;-1.81;95.08
61109;BME280;46995;55.740;37.402;2024-01-15T11:16:10;97247.78;;;-1.82;95.17
61109;BME280;46995;55.740;37.402;2024-01-15T11:18:38;97248.84;;;-1.84;95.04
61109;BME280;46995;55.740;37.402;2024-01-15T11:29:01;97239.31;;;-1.84;95.03
61109;BME280;46995;55.740;37.402;2024-01-15T11:34:07;97235.41;;;-1.89;94.99
61109;BME280;46995;55.740;37.402;2024-01-15T11:41:56;97232.94;;;-1.91;95.07
61109;BME280;46995;55.740;37.402;2024-01-15T11:44:22;97239.75;;;-1.90;94.90
61109;BME280;46995;55.740;37.402;2024-01-15T11:49:26;97236.94;;;-1.87;95.07
61109;BME280;46995;55.740;37.402;2024-01-15T11:51:59;97230.84;;;-1.86;94.80
61109;BME280;46995;55.740;37.402;2024-01-15T11:54:26;97226.09;;;-1.92;95.05
61109;BME280;46995;55.740;37.402;2024-01-15T11:56:55;97241.97;;;-1.96;94.92
61109;BME280;46995;55.740;37.402;2024-01-15T11:59:22;97238.56;;;-1.97;94.90
61109;BME280;46995;55.740;37.402;2024-01-15T12:01:48;97246.22;;;-1.95;95.15
61109;BME280;46995;55.740;37.402;2024-01-15T12:04:14;97241.88;;;-1.95;95.13
61109;BME280;46995;55.740;37.402;2024-01-15T12:06:41;97240.22;;;-1.96;94.81
61109;BME280;46995;55.740;37.402;2024-01-15T12:09:10;97242.06;;;-1.98;95.17
61109;BME280;46995;55.740;37.402;2024-01-15T12:11:36;97238.88;;;-2.01;95.02
61109;BME280;46995;55.740;37.402;2024-01-15T12:14:03;97241.47;;;-2.01;94.87
61109;BME280;46995;55.740;37.402;2024-01-15T12:16:29;97236.41;;;-2.03;95.10
61109;BME280;46995;55.740;37.402;2024-01-15T12:18:55;97233.81;;;-2.03;94.85
61109;BME280;46995;55.740;37.402;2024-01-15T12:21:20;97245.00;;;-2.02;94.86
61109;BME280;46995;55.740;37.402;2024-01-15T12:23:46;97233.94;;;-2.04;94.81
61109;BME280;46995;55.740;37.402;2024-01-15T12:26:13;97234.75;;;-2.04;95.02
61109;BME280;46995;55.740;37.402;2024-01-15T12:28:39;97230.41;;;-2.03;94.90
61109;BME280;46995;55.740;37.402;2024-01-15T12:31:05;97237.13;;;-2.01;94.95
61109;BME280;46995;55.740;37.402;2024-01-15T12:33:31;97240.53;;;-2.00;95.23
61109;BME280;46995;55.740;37.402;2024-01-15T12:35:56;97237.03;;;-1.99;95.09
61109;BME280;46995;55.740;37.402;2024-01-15T12:38:22;97236.31;;;-2.01;95.02
61109;BME280;46995;55.740;37.402;2024-01-15T12:40:48;97238.88;;;-2.01;95.07
61109;BME280;46995;55.740;37.402;2024-01-15T12:43:16;97245.09;;;-2.04;95.24
61109;BME280;46995;55.740;37.402;2024-01-15T12:45:42;97245.09;;;-2.04;95.17
61109;BME280;46995;55.740;37.402;2024-01-15T12:48:08;97227.81;;;-2.03;94.87
61109;BME280;46995;55.740;37.402;2024-01-15T12:50:34;97236.53;;;-2.04;95.13
61109;BME280;46995;55.740;37.402;2024-01-15T12:53:01;97242.75;;;-2.07;95.05
61109;BME280;46995;55.740;37.402;2024-01-15T12:55:27;97246.25;;;-2.08;95.26
61109;BME280;46995;55.740;37.402;2024-01-15T12:57:52;97243.91;;;-2.11;94.73
61109;BME280;46995;55.740;37.402;2024-01-15T13:00:20;97211.59;;;-2.29;94.95
61109;BME280;46995;55.740;37.402;2024-01-15T13:02:46;97240.38;;;-2.10;94.94
61109;BME280;46995;55.740;37.402;2024-01-15T13:05:12;97237.81;;;-2.10;94.84
61109;BME280;46995;55.740;37.402;2024-01-15T13:07:37;97247.91;;;-2.07;95.09
61109;BME280;46995;55.740;37.402;2024-01-15T13:10:03;97251.22;;;-2.05;95.03